Time;durP1;ratioP1;P1;durP2;ratioP2;P2;SDS_P1;SDS_P2;PMS_P1;PMS_P2;Temp;Humidity;BMP_temperature;BMP_pressure;BME280_temperature;BME280_humidity;BME280_pressure;Samples;Min_cycle;Max_cycle;Signal;HPM_P1;HPM_P2
2022/12/30 00:00:23;;;;;;;5.42;3.62;;;;;;;4.80;85.42;100896.80;1712232;84;21187;-77
2022/12/30 00:03:29;;;;;;;8.03;3.85;;;;;;;4.76;85.71;100899.88;1712267;84;21208;-77
2022/12/30 00:06:36;;;;;;;9.15;3.62;;;;;;;4.73;86.06;100914.53;1711131;84;21828;-78
2022/12/30 00:09:42;;;;;;;7.92;4.20;;;;;;;4.70;86.15;100907.99;1710713;84;21909;-78
2022/12/30 00:33:55;;;;;;;10.32;3.98;;;;;;;4.90;85.48;100912.31;1774629;81;21178;-78
2022/12/30 00:37:01;;;;;;;11.88;4.72;;;;;;;4.92;85.68;100904.91;1774908;81;21238;-79
2022/12/30 00:40:07;;;;;;;11.68;4.10;;;;;;;5.00;85.59;100900.59;1774722;81;21183;-77
2022/12/30 00:43:13;;;;;;;13.03;4.90;;;;;;;4.97;85.51;100902.18;1773369;81;21273;-77
2022/12/30 00:46:18;;;;;;;9.30;4.08;;;;;;;4.96;85.64;100897.75;1773267;81;21186;-78
2022/12/30 00:56:12;;;;;;;8.08;3.92;;;;;;;5.12;85.22;100902.77;1774725;81;21154;-77
2022/12/30 00:59:17;;;;;;;7.10;3.95;;;;;;;5.26;84.78;100897.55;1774774;81;21194;-77
2022/12/30 01:02:24;;;;;;;10.05;3.72;;;;;;;5.21;84.65;100899.29;1774497;81;21202;-78
2022/12/30 01:05:30;;;;;;;6.17;4.00;;;;;;;5.28;84.51;100888.31;1774819;81;21159;-77
2022/12/30 01:08:30;;;;;;;9.93;4.50;;;;;;;5.17;84.75;100887.47;1774949;81;21174;-78
2022/12/30 01:11:36;;;;;;;9.10;3.75;;;;;;;5.11;84.67;100884.77;1774803;81;21206;-77
2022/12/30 01:14:47;;;;;;;11.48;3.47;;;;;;;5.05;84.92;100883.44;1774838;81;21171;-77
2022/12/30 01:17:54;;;;;;;6.85;3.52;;;;;;;5.12;84.97;100877.86;1773290;81;21221;-77
2022/12/30 01:25:24;;;;;;;7.00;3.30;;;;;;;5.12;85.01;100877.00;1645894;87;21187;-80
2022/12/30 01:28:29;;;;;;;7.25;3.40;;;;;;;5.04;85.52;100873.59;1652066;81;21258;-78
2022/12/30 01:31:35;;;;;;;8.20;4.00;;;;;;;5.21;85.30;100867.23;1744272;82;21220;-77
2022/12/30 01:34:41;;;;;;;7.37;3.33;;;;;;;5.18;85.58;100867.02;1744141;82;21303;-77
2022/12/30 01:37:48;;;;;;;8.85;3.52;;;;;;;5.11;86.44;100876.14;1744281;82;21763;-77
2022/12/30 01:40:48;;;;;;;4.70;2.90;;;;;;;5.22;86.85;100871.67;1742753;81;21195;-77
2022/12/30 01:43:56;;;;;;;5.83;3.35;;;;;;;5.29;86.88;100865.61;1743264;82;21204;-78
2022/12/30 01:47:01;;;;;;;7.20;3.75;;;;;;;5.31;86.88;100863.63;1744152;82;21193;-78
2022/12/30 01:50:14;;;;;;;7.90;3.20;;;;;;;5.36;86.83;100856.45;1744073;82;21176;-78
2022/12/30 01:53:31;;;;;;;7.80;3.30;;;;;;;5.48;86.40;100857.28;1726016;81;21232;-77
2022/12/30 01:56:41;;;;;;;6.42;3.20;;;;;;;5.46;85.72;100849.75;1744048;82;21181;-77
2022/12/30 01:59:47;;;;;;;10.48;4.05;;;;;;;5.45;85.25;100851.60;1743031;82;22511;-78
2022/12/30 02:02:56;;;;;;;7.53;3.60;;;;;;;5.25;85.61;100847.87;1744027;82;21180;-78
2022/12/30 02:06:02;;;;;;;14.33;3.40;;;;;;;5.12;86.32;100844.45;1742855;82;21180;-78
2022/12/30 02:09:08;;;;;;;5.28;2.75;;;;;;;4.96;86.90;100846.23;1744198;82;21223;-78
2022/12/30 02:12:08;;;;;;;6.10;3.20;;;;;;;5.02;86.83;100843.51;1744680;82;21184;-78
2022/12/30 02:15:14;;;;;;;7.58;3.40;;;;;;;5.17;86.31;100845.43;1743009;82;21228;-79
2022/12/30 02:18:37;;;;;;;6.90;3.35;;;;;;;5.15;86.30;100844.71;1744359;82;21758;-78
2022/12/30 02:22:15;;;;;;;12.75;5.00;;;;;;;5.11;86.14;100852.23;1744148;82;21279;-78
2022/12/30 02:25:55;;;;;;;7.53;3.50;;;;;;;4.90;86.90;100848.61;1742854;82;21196;-78
2022/12/30 02:29:40;;;;;;;5.92;3.58;;;;;;;4.91;86.76;100847.62;1744103;82;21280;-79
2022/12/30 02:33:12;;;;;;;8.75;3.37;;;;;;;4.92;86.33;100846.13;1760388;81;21163;-77
2022/12/30 02:36:31;;;;;;;6.00;3.20;;;;;;;4.89;86.33;100840.95;1776013;80;21742;-77
2022/12/30 02:39:55;;;;;;;6.45;3.50;;;;;;;4.83;87.20;100836.90;1749927;82;21771;-80
2022/12/30 02:46:51;;;;;;;9.33;3.42;;;;;;;4.76;88.29;100842.47;1749924;82;21177;-78
2022/12/30 02:53:28;;;;;;;7.05;3.10;;;;;;;5.06;88.01;100834.13;1749825;82;21219;-78
2022/12/30 02:56:34;;;;;;;7.93;3.20;;;;;;;5.11;88.23;100834.61;1776351;81;21877;-77
2022/12/30 03:07:31;;;;;;;8.80;3.22;;;;;;;5.72;86.26;100823.11;1749886;82;21169;-78
2022/12/30 03:14:30;;;;;;;5.30;2.98;;;;;;;5.22;89.25;100833.70;1775486;81;21730;-78
2022/12/30 03:17:40;;;;;;;5.08;3.40;;;;;;;5.26;89.45;100827.88;1749788;82;21231;-78
2022/12/30 03:20:47;;;;;;;16.07;3.92;;;;;;;5.13;89.67;100834.00;1776222;81;21474;-78
2022/12/30 03:27:28;;;;;;;11.73;3.45;;;;;;;5.24;89.10;100829.02;1776176;81;21200;-78
2022/12/30 03:30:33;;;;;;;9.23;3.95;;;;;;;5.25;89.21;100831.59;1748969;81;21240;-78
2022/12/30 03:33:40;;;;;;;10.20;3.90;;;;;;;5.22;88.76;100838.66;1747792;82;21184;-78
2022/12/30 03:36:49;;;;;;;11.00;3.60;;;;;;;5.26;88.39;100834.66;1747573;82;21575;-78
2022/12/30 03:40:11;;;;;;;10.25;3.67;;;;;;;5.36;88.11;100838.35;1749065;82;21192;-77
2022/12/30 03:43:18;;;;;;;8.70;3.75;;;;;;;5.31;87.55;100836.99;1748657;82;21251;-77
2022/12/30 03:46:30;;;;;;;11.43;4.05;;;;;;;5.26;87.93;100831.95;1747638;82;21263;-78
2022/12/30 03:49:38;;;;;;;8.00;3.77;;;;;;;5.05;88.58;100835.98;1719727;82;21244;-78
2022/12/30 03:52:43;;;;;;;9.05;3.47;;;;;;;4.93;89.40;100832.92;1748962;82;21251;-78
2022/12/30 03:55:50;;;;;;;10.05;3.40;;;;;;;4.90;90.02;100841.84;1747790;82;21654;-78
2022/12/30 03:58:57;;;;;;;10.93;3.45;;;;;;;4.91;90.55;100838.13;1749006;82;21192;-77
2022/12/30 04:01:55;;;;;;;12.33;3.77;;;;;;;4.87;91.18;100838.88;1747699;81;21271;-78
2022/12/30 04:05:02;;;;;;;8.00;2.98;;;;;;;4.88;91.89;100841.94;1748635;82;21188;-77
2022/12/30 04:08:09;;;;;;;8.63;3.33;;;;;;;5.07;91.78;100834.49;1749195;82;21188;-79
2022/12/30 04:11:14;;;;;;;8.75;3.45;;;;;;;5.23;91.07;100828.17;1748997;82;21818;-77
2022/12/30 04:14:20;;;;;;;5.40;2.85;;;;;;;5.26;90.96;100829.24;1749213;82;21185;-78
2022/12/30 04:17:19;;;;;;;9.90;3.37;;;;;;;5.24;91.24;100836.66;1749660;82;21189;-78
2022/12/30 04:20:24;;;;;;;7.35;3.05;;;;;;;5.38;91.00;100832.28;1747752;82;21274;-78
2022/12/30 04:23:30;;;;;;;7.78;3.25;;;;;;;5.48;90.66;100836.93;1747679;82;21208;-78
2022/12/30 04:26:35;;;;;;;9.90;3.55;;;;;;;5.37;90.80;100833.28;1747851;82;21195;-78
2022/12/30 04:29:40;;;;;;;7.90;2.98;;;;;;;5.42;91.19;100829.33;1747674;82;21227;-77
2022/12/30 04:32:47;;;;;;;9.75;4.28;;;;;;;5.49;90.99;100830.00;1747266;81;21769;-77
2022/12/30 04:35:53;;;;;;;9.40;4.33;;;;;;;5.62;90.19;100825.75;1748168;82;21224;-78
2022/12/30 04:38:58;;;;;;;11.08;4.70;;;;;;;5.59;90.38;100834.15;1749173;82;21739;-78
2022/12/30 04:41:58;;;;;;;11.03;3.58;;;;;;;5.70;90.82;100829.18;1747677;82;21192;-77
2022/12/30 04:45:04;;;;;;;7.28;3.87;;;;;;;5.79;90.28;100835.17;1748991;82;21783;-78
2022/12/30 04:48:09;;;;;;;6.90;3.00;;;;;;;5.97;89.65;100843.08;1749161;82;21156;-78
2022/12/30 04:51:15;;;;;;;9.55;3.08;;;;;;;5.82;89.73;100848.45;1749282;82;21239;-78
2022/12/30 04:54:20;;;;;;;6.85;2.52;;;;;;;5.82;90.08;100845.74;1749150;82;21220;-78
2022/12/30 04:57:25;;;;;;;14.38;3.10;;;;;;;5.78;90.76;100839.70;1749070;82;21188;-78
2022/12/30 05:00:32;;;;;;;8.90;2.83;;;;;;;5.85;90.87;100845.48;1747737;82;21267;-78
2022/12/30 05:03:37;;;;;;;11.88;4.58;;;;;;;5.85;91.08;100848.20;1747770;82;21203;-78
2022/12/30 05:06:42;;;;;;;8.98;2.58;;;;;;;6.15;90.15;100839.25;1748163;82;21236;-78
2022/12/30 05:09:47;;;;;;;10.28;3.25;;;;;;;5.89;90.74;100837.45;1749065;82;21746;-77
2022/12/30 05:12:54;;;;;;;10.00;2.90;;;;;;;6.01;90.83;100840.96;1748912;82;21703;-78
2022/12/30 05:15:59;;;;;;;7.35;3.40;;;;;;;5.98;91.41;100839.89;1748338;82;21220;-78
2022/12/30 05:19:05;;;;;;;13.32;3.52;;;;;;;5.89;92.01;100846.45;1702886;84;21239;-78
2022/12/30 05:22:10;;;;;;;11.90;3.98;;;;;;;6.06;91.88;100847.70;1747166;82;21220;-78
2022/12/30 05:28:39;;;;;;;8.35;3.02;;;;;;;6.27;91.47;100842.77;1747316;82;21243;-78
2022/12/30 05:31:45;;;;;;;9.43;3.35;;;;;;;6.31;91.48;100841.00;1703010;84;21227;-78
2022/12/30 05:34:52;;;;;;;6.78;2.87;;;;;;;6.35;91.62;100846.99;1752019;80;21204;-78
2022/12/30 05:37:58;;;;;;;7.80;2.90;;;;;;;6.37;91.70;100843.16;1797628;79;21715;-78
2022/12/30 05:41:04;;;;;;;8.53;2.70;;;;;;;6.55;91.23;100846.60;1779234;80;21184;-78
2022/12/30 05:44:11;;;;;;;6.85;2.98;;;;;;;6.87;89.57;100846.42;1806418;79;21180;-78
2022/12/30 05:47:16;;;;;;;8.60;3.12;;;;;;;6.95;89.66;100849.78;1779603;80;21204;-78
2022/12/30 05:50:21;;;;;;;9.93;3.30;;;;;;;6.99;89.47;100847.15;1807923;79;21180;-78
2022/12/30 05:53:31;;;;;;;14.63;2.65;;;;;;;7.07;88.94;100848.17;1769380;80;21171;-78
2022/12/30 05:56:36;;;;;;;7.33;2.95;;;;;;;7.13;89.37;100861.20;1719525;83;21243;-78
2022/12/30 05:59:35;;;;;;;6.85;3.17;;;;;;;7.01;89.32;100865.53;1796791;79;21200;-78
2022/12/30 06:02:28;;;;;;;8.73;3.50;;;;;;;6.79;89.57;100866.14;1734209;80;21790;-78
2022/12/30 06:05:35;;;;;;;11.12;3.52;;;;;;;6.83;89.67;100877.61;1780397;79;21172;-79
2022/12/30 06:08:41;;;;;;;11.38;3.70;;;;;;;6.83;89.99;100880.33;1770176;80;21785;-78
2022/12/30 06:11:47;;;;;;;7.70;3.08;;;;;;;6.84;90.08;100876.09;1801136;79;21145;-77
2022/12/30 06:15:22;;;;;;;9.18;3.02;;;;;;;6.99;90.12;100879.78;1781351;80;21169;-79
2022/12/30 06:18:37;;;;;;;11.43;3.45;;;;;;;6.99;89.73;100882.00;1751653;79;21712;-79
2022/12/30 06:21:59;;;;;;;11.90;3.55;;;;;;;7.04;89.46;100881.08;1720886;83;21272;-79
2022/12/30 06:25:10;;;;;;;13.75;3.65;;;;;;;6.98;89.62;100873.99;1783726;79;21442;-80
2022/12/30 06:42:24;;;;;;;9.25;3.67;;;;;;;6.98;90.05;100889.81;1755004;82;21169;-78
2022/12/30 06:45:28;;;;;;;14.30;3.92;;;;;;;7.04;89.98;100885.66;1754363;82;21157;-78
2022/12/30 06:48:27;;;;;;;6.60;3.02;;;;;;;7.15;89.72;100884.17;1752871;80;21220;-78
2022/12/30 06:51:34;;;;;;;9.65;3.65;;;;;;;7.10;89.39;100882.38;1746879;80;21687;-79
2022/12/30 06:54:40;;;;;;;9.73;3.08;;;;;;;7.22;89.05;100885.34;1724150;81;21215;-77
2022/12/30 06:57:47;;;;;;;10.45;3.65;;;;;;;7.13;89.39;100880.24;1732264;81;21233;-79
2022/12/30 07:00:54;;;;;;;18.25;6.50;;;;;;;7.09;89.52;100888.32;1751782;81;21179;-78
2022/12/30 07:04:00;;;;;;;14.63;4.97;;;;;;;7.05;89.95;100892.81;1724896;81;21181;-77
2022/12/30 07:07:06;;;;;;;11.22;3.77;;;;;;;6.99;90.21;100888.80;1743945;81;21194;-77
2022/12/30 07:10:13;;;;;;;8.68;3.70;;;;;;;6.99;90.10;100887.44;1748858;80;21244;-78
2022/12/30 07:13:19;;;;;;;11.00;3.67;;;;;;;7.02;89.98;100891.76;1752437;81;21171;-79
2022/12/30 07:16:25;;;;;;;10.15;3.65;;;;;;;6.97;89.95;100894.04;1744712;81;21165;-79
2022/12/30 07:19:30;;;;;;;9.93;3.67;;;;;;;7.01;89.80;100894.98;1745285;81;21165;-79
2022/12/30 07:22:37;;;;;;;14.55;4.37;;;;;;;7.00;89.83;100898.67;1723677;81;21193;-79
2022/12/30 07:25:43;;;;;;;9.38;3.92;;;;;;;7.09;90.12;100897.84;1700406;82;22421;-80
2022/12/30 07:28:51;;;;;;;13.05;4.08;;;;;;;7.19;89.68;100897.86;1715645;82;21755;-80
2022/12/30 07:31:57;;;;;;;22.15;5.05;;;;;;;7.37;89.48;100903.48;1711400;82;21181;-80
2022/12/30 07:35:02;;;;;;;14.75;4.55;;;;;;;7.41;88.97;100897.61;1691280;83;21197;-77
2022/12/30 07:38:08;;;;;;;9.60;4.05;;;;;;;7.35;89.18;100898.19;1672557;83;21802;-78
2022/12/30 07:41:15;;;;;;;8.10;3.83;;;;;;;7.53;88.70;100900.19;1650627;85;21240;-79
2022/12/30 07:44:20;;;;;;;11.97;3.75;;;;;;;7.49;88.50;100900.14;1679673;84;21356;-79
2022/12/30 07:47:30;;;;;;;15.25;5.47;;;;;;;7.39;89.24;100905.58;1680641;84;21274;-79
2022/12/30 07:50:39;;;;;;;12.47;4.90;;;;;;;7.33;88.95;100902.89;1687839;83;21188;-79
2022/12/30 07:53:44;;;;;;;9.35;4.25;;;;;;;7.23;89.33;100896.58;1697795;84;21216;-79
2022/12/30 07:56:50;;;;;;;9.98;3.45;;;;;;;7.34;88.97;100893.75;1669803;84;21775;-79
2022/12/30 07:59:56;;;;;;;10.63;3.98;;;;;;;7.34;88.96;100893.75;1667056;84;21201;-79
2022/12/30 08:03:06;;;;;;;9.97;3.70;;;;;;;7.40;88.57;100892.33;1663436;84;21214;-79
2022/12/30 08:06:20;;;;;;;9.88;4.25;;;;;;;7.33;88.80;100899.32;1685445;85;21910;-79
2022/12/30 08:09:27;;;;;;;9.83;4.00;;;;;;;7.26;89.51;100888.16;1662293;85;21334;-79
2022/12/30 08:12:32;;;;;;;9.13;3.92;;;;;;;7.20;89.74;100890.55;1659320;85;21760;-78
2022/12/30 08:15:38;;;;;;;8.90;3.40;;;;;;;7.21;89.64;100893.16;1669488;85;21205;-80
2022/12/30 08:18:45;;;;;;;9.43;3.92;;;;;;;7.40;89.19;100891.82;1680930;85;21852;-79
2022/12/30 08:21:51;;;;;;;8.60;4.17;;;;;;;7.42;88.66;100894.39;1645433;86;21273;-79
2022/12/30 08:24:50;;;;;;;8.83;4.30;;;;;;;7.38;88.97;100891.59;1652094;87;21787;-79
2022/12/30 08:27:43;;;;;;;8.73;3.92;;;;;;;7.42;88.78;100895.75;1673067;85;21236;-79
2022/12/30 08:30:29;;;;;;;9.83;4.60;;;;;;;7.50;88.71;100897.77;1675783;85;21229;-77
2022/12/30 08:33:35;;;;;;;9.25;3.83;;;;;;;7.48;88.63;100891.59;1653661;85;21193;-77
2022/12/30 08:36:41;;;;;;;10.00;3.87;;;;;;;7.52;88.48;100889.80;1674392;85;21204;-78
2022/12/30 08:39:48;;;;;;;11.15;4.70;;;;;;;7.56;88.54;100879.00;1677891;85;21225;-78
2022/12/30 08:42:54;;;;;;;8.20;3.92;;;;;;;7.75;88.25;100884.94;1677469;85;21237;-78
2022/12/30 08:46:07;;;;;;;7.97;4.10;;;;;;;7.93;87.77;100886.44;1659291;86;21180;-78
2022/12/30 08:49:13;;;;;;;13.03;4.28;;;;;;;7.92;87.93;100878.77;1643573;85;21293;-79
2022/12/30 08:52:18;;;;;;;13.80;5.00;;;;;;;7.98;87.71;100875.96;1669753;84;21192;-79
2022/12/30 08:55:27;;;;;;;8.55;3.95;;;;;;;8.02;87.58;100881.98;1674208;84;21200;-79
2022/12/30 08:58:32;;;;;;;10.13;4.03;;;;;;;8.13;86.84;100884.53;1669102;84;21186;-80
2022/12/30 09:01:43;;;;;;;8.58;3.87;;;;;;;8.14;86.61;100876.73;1669738;84;21558;-78
2022/12/30 09:05:03;;;;;;;8.60;4.35;;;;;;;7.96;86.76;100867.09;1651199;85;21197;-77
2022/12/30 09:08:20;;;;;;;8.63;3.77;;;;;;;8.03;87.30;100867.34;1667618;84;21898;-78
2022/12/30 09:11:35;;;;;;;11.88;4.72;;;;;;;8.21;86.71;100865.59;1665208;85;21237;-79
2022/12/30 09:14:40;;;;;;;13.22;5.65;;;;;;;8.36;86.15;100864.13;1673378;84;21212;-79
2022/12/30 09:17:47;;;;;;;11.12;5.28;;;;;;;8.40;85.88;100869.64;1667146;84;21791;-79
2022/12/30 09:20:58;;;;;;;11.70;4.97;;;;;;;8.29;86.06;100862.14;1666562;84;21220;-77
2022/12/30 09:24:03;;;;;;;8.70;3.90;;;;;;;8.22;85.92;100861.84;1665783;84;21230;-81
2022/12/30 09:37:40;;;;;;;11.43;3.90;;;;;;;8.09;86.72;100848.57;1785207;79;22224;-80
2022/12/30 09:41:10;;;;;;;9.83;4.67;;;;;;;8.09;86.54;100847.20;1774382;78;21172;-80
2022/12/30 09:44:23;;;;;;;6.08;3.87;;;;;;;8.13;86.50;100847.23;1809070;77;21191;-79
2022/12/30 09:47:46;;;;;;;7.22;4.20;;;;;;;8.19;86.71;100843.09;1794341;78;21253;-77
2022/12/30 09:51:03;;;;;;;8.58;3.85;;;;;;;8.09;86.68;100837.67;1791045;78;21796;-78
2022/12/30 09:54:12;;;;;;;10.48;4.15;;;;;;;7.96;87.07;100839.84;1789685;78;21171;-78
2022/12/30 09:57:31;;;;;;;11.22;3.80;;;;;;;8.00;87.30;100844.47;1784265;78;21795;-78
2022/12/30 10:00:39;;;;;;;15.00;5.05;;;;;;;8.20;87.00;100833.39;1796581;78;21193;-78
2022/12/30 10:03:45;;;;;;;7.40;4.17;;;;;;;8.33;86.43;100840.39;1796008;79;21216;-78
2022/12/30 10:07:08;;;;;;;9.60;4.20;;;;;;;8.31;86.52;100835.58;1786122;78;21189;-78
2022/12/30 10:10:51;;;;;;;13.05;4.40;;;;;;;8.42;86.12;100828.59;1784732;78;21185;-79
2022/12/30 10:14:03;;;;;;;15.10;4.35;;;;;;;8.45;85.83;100831.89;1790342;78;21177;-78
2022/12/30 10:17:48;;;;;;;9.65;4.20;;;;;;;8.56;85.62;100824.52;1789199;78;21154;-76
2022/12/30 10:21:25;;;;;;;19.05;9.10;;;;;;;8.53;85.87;100833.02;1775543;78;21199;-80
2022/12/30 10:24:55;;;;;;;14.93;5.47;;;;;;;8.53;86.28;100828.42;1785626;79;22545;-80
2022/12/30 10:28:02;;;;;;;11.70;4.25;;;;;;;8.51;86.58;100822.24;1768612;81;21328;-79
2022/12/30 10:31:03;;;;;;;7.35;4.17;;;;;;;8.67;86.03;100820.25;1768875;81;21213;-80
2022/12/30 10:34:21;;;;;;;20.27;4.33;;;;;;;8.70;86.00;100822.66;1800288;79;21406;-80
2022/12/30 10:37:39;;;;;;;10.25;4.03;;;;;;;8.65;86.09;100825.83;1798381;79;21262;-79
2022/12/30 10:41:18;;;;;;;10.93;4.33;;;;;;;8.74;86.28;100821.85;1799069;79;21191;-79
2022/12/30 10:44:45;;;;;;;12.25;4.15;;;;;;;8.83;86.08;100815.48;1787368;79;21197;-79
2022/12/30 10:48:05;;;;;;;12.40;4.05;;;;;;;8.77;86.34;100816.95;1799680;79;21175;-79
2022/12/30 10:51:11;;;;;;;12.07;4.33;;;;;;;8.88;86.17;100814.01;1797439;80;21195;-79
2022/12/30 10:54:18;;;;;;;8.30;4.25;;;;;;;9.00;85.88;100805.63;1797850;80;21734;-79
2022/12/30 10:57:29;;;;;;;9.10;3.98;;;;;;;9.29;84.80;100804.04;1796467;80;21198;-80
2022/12/30 11:00:40;;;;;;;7.12;3.60;;;;;;;9.18;84.94;100798.31;1797591;80;21199;-80
2022/12/30 11:03:50;;;;;;;18.23;4.53;;;;;;;9.18;84.51;100796.44;1778582;80;21187;-79
2022/12/30 11:07:05;;;;;;;9.90;4.37;;;;;;;9.19;84.53;100798.66;1794959;79;21279;-79
2022/12/30 11:10:22;;;;;;;8.38;4.08;;;;;;;8.96;85.19;100814.11;1768442;79;21160;-79
2022/12/30 11:16:45;;;;;;;12.93;5.17;;;;;;;9.05;86.28;100793.23;1815124;79;21798;-79
2022/12/30 11:19:51;;;;;;;8.13;3.95;;;;;;;9.18;85.35;100790.13;1774782;79;21218;-79
2022/12/30 11:23:01;;;;;;;7.28;3.85;;;;;;;9.20;85.45;100791.67;1784559;78;21167;-80
2022/12/30 11:26:09;;;;;;;9.98;3.98;;;;;;;9.36;84.97;100788.25;1805498;78;21179;-79
2022/12/30 11:29:16;;;;;;;15.63;4.00;;;;;;;9.40;84.60;100788.27;1793580;78;21180;-79
2022/12/30 11:32:23;;;;;;;5.60;3.05;;;;;;;9.26;85.23;100773.80;1782483;79;21173;-79
2022/12/30 11:35:50;;;;;;;8.98;3.90;;;;;;;9.12;85.79;100773.84;1780977;80;21704;-79
2022/12/30 11:38:57;;;;;;;6.78;3.47;;;;;;;9.03;85.95;100768.46;1778898;80;21206;-79
2022/12/30 11:42:09;;;;;;;9.25;4.35;;;;;;;8.96;86.28;100767.73;1779915;80;21843;-79
2022/12/30 11:45:26;;;;;;;9.48;4.78;;;;;;;8.85;86.81;100765.23;1765039;80;21151;-79
2022/12/30 11:48:34;;;;;;;13.58;6.72;;;;;;;8.87;86.86;100766.43;1760377;81;21809;-80
2022/12/30 11:51:51;;;;;;;11.73;6.17;;;;;;;8.87;87.01;100763.70;1805935;78;21164;-80
2022/12/30 11:55:04;;;;;;;11.18;4.58;;;;;;;8.85;87.25;100762.50;1791678;80;21172;-80
2022/12/30 11:58:11;;;;;;;10.18;4.22;;;;;;;8.87;87.32;100763.20;1792536;80;21182;-79
2022/12/30 12:01:17;;;;;;;10.03;4.37;;;;;;;8.82;88.12;100764.16;1792038;79;21157;-78
2022/12/30 12:04:47;;;;;;;15.70;6.05;;;;;;;8.84;87.83;100763.49;1779442;80;21243;-78
2022/12/30 12:07:47;;;;;;;13.75;4.50;;;;;;;8.87;87.98;100761.83;1755659;81;21523;-79
2022/12/30 12:10:42;;;;;;;11.48;4.45;;;;;;;8.99;87.70;100756.14;1754793;81;21187;-79
2022/12/30 12:13:48;;;;;;;8.65;4.37;;;;;;;8.96;87.71;100751.35;1774800;80;21215;-78
2022/12/30 12:16:51;;;;;;;17.57;5.67;;;;;;;8.89;87.98;100757.09;1799495;79;21232;-78
2022/12/30 12:19:45;;;;;;;11.38;4.22;;;;;;;9.12;87.22;100753.88;1768875;81;21225;-78
2022/12/30 12:22:46;;;;;;;7.45;4.70;;;;;;;8.89;88.14;100750.75;1762610;80;21234;-77
2022/12/30 12:25:59;;;;;;;11.55;4.53;;;;;;;8.84;88.49;100747.63;1798379;78;21143;-78
2022/12/30 12:29:05;;;;;;;9.65;4.53;;;;;;;8.81;88.98;100741.14;1759490;80;21803;-79
2022/12/30 12:32:41;;;;;;;8.63;4.25;;;;;;;8.88;89.07;100744.44;1783257;80;21185;-79
2022/12/30 12:36:09;;;;;;;15.85;4.97;;;;;;;8.91;89.42;100744.66;1761738;81;21199;-78
2022/12/30 12:39:23;;;;;;;8.55;5.00;;;;;;;8.94;89.91;100737.02;1805769;78;21208;-78
2022/12/30 12:42:32;;;;;;;10.78;5.35;;;;;;;8.93;90.19;100745.34;1769124;78;21284;-78
2022/12/30 12:46:06;;;;;;;14.47;5.85;;;;;;;8.98;89.93;100733.45;1754722;81;21181;-78
2022/12/30 12:49:44;;;;;;;15.45;5.47;;;;;;;9.18;89.38;100727.35;1776837;80;21172;-78
2022/12/30 12:53:19;;;;;;;11.00;4.47;;;;;;;9.17;89.45;100724.25;1820254;79;21211;-77
2022/12/30 12:56:55;;;;;;;10.20;4.35;;;;;;;9.30;88.98;100721.98;1786160;80;21180;-79
2022/12/30 13:00:21;;;;;;;10.23;4.45;;;;;;;9.28;89.12;100714.98;1785896;80;21231;-79
2022/12/30 13:03:49;;;;;;;8.63;4.65;;;;;;;9.34;88.31;100711.09;1774210;80;21171;-79
2022/12/30 13:07:29;;;;;;;13.30;5.08;;;;;;;9.03;89.72;100716.11;1764615;80;21200;-78
2022/12/30 13:10:51;;;;;;;13.70;5.87;;;;;;;9.20;89.20;100718.48;1795231;80;21734;-78
2022/12/30 13:14:21;;;;;;;8.20;5.22;;;;;;;9.40;88.22;100709.08;1794368;80;21187;-78
2022/12/30 13:17:31;;;;;;;10.45;4.97;;;;;;;8.93;90.38;100709.88;1815851;77;21183;-78
2022/12/30 13:20:50;;;;;;;16.73;5.25;;;;;;;9.16;90.10;100702.92;1826170;77;21170;-79
2022/12/30 13:24:03;;;;;;;10.90;6.08;;;;;;;9.04;90.70;100698.74;1813651;77;21166;-79
2022/12/30 13:27:08;;;;;;;15.28;6.30;;;;;;;8.62;92.01;100693.91;1794134;77;21884;-78
2022/12/30 13:30:16;;;;;;;11.78;6.22;;;;;;;8.41;93.22;100701.49;1853404;77;21148;-78
2022/12/30 13:33:30;;;;;;;20.62;6.50;;;;;;;8.25;94.96;100695.32;1853825;77;21164;-79
2022/12/30 13:37:00;;;;;;;13.98;6.53;;;;;;;8.63;94.16;100690.16;1853567;77;21176;-78
2022/12/30 13:40:12;;;;;;;14.07;6.55;;;;;;;8.78;93.80;100684.16;1851739;77;21765;-78
2022/12/30 13:43:29;;;;;;;14.33;5.62;;;;;;;8.44;94.09;100677.52;1852621;77;21694;-78
2022/12/30 13:46:37;;;;;;;11.97;5.67;;;;;;;8.59;94.60;100683.80;1842562;77;21152;-78
2022/12/30 13:49:43;;;;;;;16.20;7.33;;;;;;;8.59;94.82;100683.80;1855191;77;21203;-78
2022/12/30 13:52:57;;;;;;;13.03;6.70;;;;;;;8.44;94.63;100688.42;1856326;77;21199;-78
2022/12/30 13:56:06;;;;;;;11.63;6.10;;;;;;;8.31;95.56;100694.70;1797212;77;21179;-79
2022/12/30 13:59:11;;;;;;;11.95;6.00;;;;;;;8.42;96.26;100686.36;1768167;79;21299;-77
2022/12/30 14:02:31;;;;;;;15.98;6.83;;;;;;;8.45;95.71;100694.22;1763446;78;21170;-78
2022/12/30 14:05:50;;;;;;;14.63;6.90;;;;;;;8.39;95.94;100698.08;1801066;79;21821;-79
2022/12/30 14:09:20;;;;;;;16.42;6.83;;;;;;;8.24;97.04;100711.33;1811336;79;21231;-77
2022/12/30 14:12:39;;;;;;;15.00;6.15;;;;;;;8.37;97.06;100707.75;1784953;79;21183;-77
2022/12/30 14:15:51;;;;;;;15.63;6.90;;;;;;;8.53;96.76;100703.52;1762715;81;21172;-78
2022/12/30 14:18:58;;;;;;;17.20;7.72;;;;;;;8.80;95.27;100695.28;1762607;80;21784;-77
2022/12/30 14:22:04;;;;;;;17.25;7.95;;;;;;;8.80;95.10;100691.67;1782026;80;21779;-77
2022/12/30 14:25:31;;;;;;;19.37;8.33;;;;;;;8.72;95.42;100681.55;1781663;80;21213;-78
2022/12/30 14:28:41;;;;;;;9.45;6.40;;;;;;;9.09;94.54;100682.75;1790060;79;21176;-78
2022/12/30 14:31:53;;;;;;;15.53;6.17;;;;;;;8.76;95.08;100688.42;1798996;79;21239;-78
2022/12/30 14:35:05;;;;;;;12.68;6.33;;;;;;;8.70;95.46;100681.72;1798924;79;21195;-78
2022/12/30 14:38:41;;;;;;;12.30;6.95;;;;;;;8.71;95.37;100681.21;1799430;79;21179;-78
2022/12/30 14:41:53;;;;;;;16.00;7.50;;;;;;;8.72;95.52;100689.73;1781950;79;21223;-78
2022/12/30 14:45:07;;;;;;;14.68;5.92;;;;;;;8.67;95.94;100690.71;1797258;80;21204;-78
2022/12/30 14:48:14;;;;;;;13.58;5.72;;;;;;;8.70;95.77;100691.27;1791225;79;21249;-78
2022/12/30 14:51:20;;;;;;;16.02;5.60;;;;;;;8.65;96.15;100691.36;1796453;80;21194;-78
2022/12/30 14:54:31;;;;;;;13.15;6.60;;;;;;;8.77;95.93;100690.64;1794239;78;21185;-79
2022/12/30 14:57:40;;;;;;;9.80;5.95;;;;;;;8.76;96.05;100689.78;1785690;79;21239;-79
2022/12/30 15:00:45;;;;;;;12.37;6.65;;;;;;;9.24;94.65;100695.84;1785549;80;21235;-79
2022/12/30 15:03:51;;;;;;;15.13;7.62;;;;;;;9.15;94.31;100697.63;1786028;79;21160;-80
2022/12/30 15:06:57;;;;;;;11.53;6.83;;;;;;;9.17;94.06;100695.59;1795298;80;21191;-78
2022/12/30 15:10:03;;;;;;;11.05;6.62;;;;;;;9.12;94.50;100697.94;1793845;80;22049;-78
2022/12/30 15:13:25;;;;;;;11.55;5.37;;;;;;;9.06;94.76;100704.89;1791316;79;21211;-78
2022/12/30 15:16:36;;;;;;;12.10;5.42;;;;;;;9.22;94.38;100698.70;1793626;79;21191;-78
2022/12/30 15:19:42;;;;;;;16.48;7.15;;;;;;;9.20;94.04;100699.38;1773594;80;21204;-79
2022/12/30 15:22:50;;;;;;;12.05;7.17;;;;;;;9.24;93.88;100704.87;1784057;80;21794;-79
2022/12/30 15:26:11;;;;;;;17.82;10.03;;;;;;;9.00;94.69;100705.52;1751469;79;21219;-78
2022/12/30 15:29:23;;;;;;;15.93;8.33;;;;;;;8.96;94.86;100706.34;1773959;79;21187;-78
2022/12/30 15:32:40;;;;;;;18.55;8.10;;;;;;;9.10;94.25;100708.17;1765789;81;21172;-78
2022/12/30 15:35:45;;;;;;;14.68;7.28;;;;;;;8.82;95.04;100710.97;1766168;81;21207;-77
2022/12/30 15:38:52;;;;;;;11.97;6.90;;;;;;;8.95;94.60;100710.59;1764618;81;21199;-79
2022/12/30 15:41:57;;;;;;;16.62;6.90;;;;;;;8.97;94.87;100716.73;1765373;81;21263;-78
2022/12/30 15:44:56;;;;;;;15.65;7.03;;;;;;;8.87;95.77;100707.27;1785890;80;21200;-78
2022/12/30 15:48:04;;;;;;;19.62;7.05;;;;;;;8.78;95.82;100709.56;1796002;80;21180;-78
2022/12/30 15:51:27;;;;;;;13.83;5.92;;;;;;;8.73;96.05;100708.32;1795499;80;21267;-80
2022/12/30 15:54:46;;;;;;;13.95;7.08;;;;;;;8.75;96.32;100709.90;1784510;78;21193;-79
2022/12/30 15:57:52;;;;;;;13.25;7.58;;;;;;;8.70;97.01;100710.84;1765499;81;21242;-79
2022/12/30 16:01:17;;;;;;;14.30;7.37;;;;;;;8.60;98.24;100710.05;1763962;80;21860;-78
2022/12/30 16:04:24;;;;;;;15.13;6.28;;;;;;;8.61;98.52;100716.73;1763751;81;21219;-78
2022/12/30 16:07:29;;;;;;;17.23;7.85;;;;;;;8.76;98.52;100718.94;1765415;81;21274;-77
2022/12/30 16:10:38;;;;;;;14.68;6.37;;;;;;;8.54;98.96;100714.77;1766226;81;22605;-78
2022/12/30 16:13:36;;;;;;;9.45;6.03;;;;;;;8.52;99.53;100714.93;1765210;81;21212;-78
2022/12/30 16:16:45;;;;;;;15.48;6.83;;;;;;;8.73;99.07;100711.05;1771869;80;21163;-77